Anzahl Datensätze: 138
min. Temperatur: 3.7 °C
max. Temperatur: 14.1 °C
max. Windgeschwindigkeit: 31.0 km/h
Niederschlagsumme: 0.0 mm
| Datum |
Zeit |
Temp °C |
Feuchte % |
Taupunkt °C |
Luftdruck hPa |
Wind km/h |
Windrichtung |
Strahlung w/m² |
Niederschlag mm |
|---|---|---|---|---|---|---|---|---|---|
| 30.03.2025 | 00:00 | 4.9 | 94 | 4.0 | 1019.6 | 4.3 | S | 0 | 0.0 |
| 30.03.2025 | 00:10 | 4.8 | 95 | 4.1 | 1019.6 | 0.7 | N | 0 | 0.0 |
| 30.03.2025 | 00:21 | 4.8 | 94 | 4.0 | 1019.7 | 1.1 | SSW | 0 | 0.0 |
| 30.03.2025 | 00:31 | 4.9 | 94 | 4.0 | 1019.8 | 1.4 | N | 0 | 0.0 |
| 30.03.2025 | 00:41 | 4.9 | 95 | 4.1 | 1019.8 | 1.1 | NO | 0 | 0.0 |
| 30.03.2025 | 00:51 | 5.0 | 95 | 4.2 | 1019.9 | 3.2 | S | 0 | 0.0 |
| 30.03.2025 | 01:01 | 4.9 | 95 | 4.1 | 1019.8 | 2.9 | N | 0 | 0.0 |
| 30.03.2025 | 01:11 | 5.0 | 94 | 4.1 | 1019.6 | 0.7 | N | 0 | 0.0 |
| 30.03.2025 | 01:21 | 5.3 | 93 | 4.2 | 1019.5 | 0.7 | N | 0 | 0.0 |
| 30.03.2025 | 01:31 | 5.2 | 94 | 4.3 | 1019.3 | 0.7 | NNW | 0 | 0.0 |
| 30.03.2025 | 01:41 | 4.9 | 95 | 4.2 | 1019.2 | 1.8 | N | 0 | 0.0 |
| 30.03.2025 | 01:51 | 4.7 | 93 | 3.7 | 1019.1 | 2.9 | N | 0 | 0.0 |
| 30.03.2025 | 03:01 | 4.9 | 93 | 3.9 | 1019.1 | 1.4 | NO | 0 | 0.0 |
| 30.03.2025 | 03:11 | 4.9 | 94 | 4.0 | 1019.1 | 1.4 | S | 0 | 0.0 |
| 30.03.2025 | 03:21 | 4.8 | 94 | 3.9 | 1019.1 | 1.1 | NNO | 0 | 0.0 |
| 30.03.2025 | 03:31 | 4.5 | 93 | 3.5 | 1019.1 | 6.5 | NNO | 0 | 0.0 |
| 30.03.2025 | 03:41 | 4.7 | 91 | 3.4 | 1019.1 | 3.6 | NNO | 0 | 0.0 |
| 30.03.2025 | 03:51 | 4.8 | 88 | 3.0 | 1019.2 | 1.1 | N | 0 | 0.0 |
| 30.03.2025 | 04:01 | 4.9 | 86 | 2.7 | 1019.1 | 4.7 | ONO | 0 | 0.0 |
| 30.03.2025 | 04:11 | 5.0 | 84 | 2.4 | 1019.0 | 5.8 | NNO | 0 | 0.0 |
| 30.03.2025 | 04:21 | 5.2 | 82 | 2.4 | 1019.0 | 2.9 | NO | 0 | 0.0 |
| 30.03.2025 | 04:31 | 5.0 | 85 | 2.6 | 1019.2 | 0.7 | N | 0 | 0.0 |
| 30.03.2025 | 04:41 | 4.7 | 86 | 2.5 | 1019.1 | 2.9 | N | 0 | 0.0 |
| 30.03.2025 | 04:51 | 4.9 | 86 | 2.7 | 1019.1 | 1.1 | WSW | 0 | 0.0 |
| 30.03.2025 | 05:01 | 4.7 | 87 | 2.7 | 1019.1 | 1.8 | N | 0 | 0.0 |
| 30.03.2025 | 05:11 | 4.3 | 88 | 2.6 | 1019.1 | 3.6 | NNO | 0 | 0.0 |
| 30.03.2025 | 05:21 | 4.0 | 88 | 2.2 | 1019.3 | 1.8 | NO | 0 | 0.0 |
| 30.03.2025 | 05:31 | 3.7 | 89 | 1.9 | 1019.5 | 4.0 | N | 0 | 0.0 |
| 30.03.2025 | 05:41 | 3.7 | 88 | 2.0 | 1019.6 | 3.6 | NO | 0 | 0.0 |
| 30.03.2025 | 05:51 | 3.9 | 89 | 2.3 | 1019.8 | 2.9 | NNO | 0 | 0.0 |
| 30.03.2025 | 06:01 | 4.1 | 89 | 2.4 | 1020.0 | 2.2 | N | 0 | 0.0 |
| 30.03.2025 | 06:11 | 4.3 | 89 | 2.6 | 1020.1 | 2.9 | NNO | 0 | 0.0 |
| 30.03.2025 | 06:21 | 4.6 | 89 | 3.0 | 1020.2 | 1.1 | N | 0 | 0.0 |
| 30.03.2025 | 06:31 | 3.9 | 89 | 2.3 | 1020.6 | 4.7 | N | 0 | 0.0 |
| 30.03.2025 | 06:42 | 4.0 | 89 | 2.4 | 1020.8 | 2.9 | NNO | 0 | 0.0 |
| 30.03.2025 | 06:52 | 4.2 | 88 | 2.4 | 1020.6 | 2.5 | NO | 0 | 0.0 |
| 30.03.2025 | 07:02 | 4.6 | 88 | 2.7 | 1020.7 | 0.4 | N | 0 | 0.0 |
| 30.03.2025 | 07:12 | 4.4 | 90 | 2.8 | 1020.6 | 1.4 | S | 3 | 0.0 |
| 30.03.2025 | 07:22 | 4.0 | 91 | 2.6 | 1020.8 | 2.5 | NO | 4 | 0.0 |
| 30.03.2025 | 07:32 | 4.2 | 91 | 2.8 | 1020.8 | 0.4 | N | 8 | 0.0 |
| 30.03.2025 | 07:42 | 4.4 | 90 | 2.9 | 1020.8 | 1.8 | NNW | 9 | 0.0 |
| 30.03.2025 | 07:52 | 4.5 | 89 | 2.9 | 1021.2 | 0.7 | N | 15 | 0.0 |
| 30.03.2025 | 08:02 | 4.7 | 90 | 3.2 | 1021.5 | 1.4 | SSW | 17 | 0.0 |
| 30.03.2025 | 08:12 | 4.6 | 90 | 3.2 | 1021.4 | 1.4 | N | 16 | 0.0 |
| 30.03.2025 | 08:22 | 4.6 | 91 | 3.2 | 1021.6 | 0.7 | N | 18 | 0.0 |
| 30.03.2025 | 08:32 | 4.6 | 92 | 3.4 | 1021.7 | 1.4 | N | 21 | 0.0 |
| 30.03.2025 | 08:42 | 4.6 | 91 | 3.3 | 1021.5 | 0.4 | N | 23 | 0.0 |
| 30.03.2025 | 08:52 | 4.6 | 89 | 3.1 | 1021.5 | 2.5 | NO | 29 | 0.0 |
| 30.03.2025 | 09:02 | 4.8 | 89 | 3.2 | 1021.3 | 1.1 | NNO | 37 | 0.0 |
| 30.03.2025 | 09:12 | 4.9 | 89 | 3.3 | 1021.2 | 3.2 | SSW | 48 | 0.0 |
| 30.03.2025 | 09:22 | 4.9 | 91 | 3.5 | 1021.1 | 2.2 | S | 57 | 0.0 |
| 30.03.2025 | 09:32 | 5.2 | 91 | 3.9 | 1020.8 | 2.9 | S | 72 | 0.0 |
| 30.03.2025 | 09:42 | 5.1 | 92 | 3.8 | 1020.7 | 2.5 | N | 91 | 0.0 |
| 30.03.2025 | 09:52 | 5.1 | 91 | 3.7 | 1020.7 | 4.0 | S | 105 | 0.0 |
| 30.03.2025 | 10:02 | 5.5 | 89 | 3.8 | 1020.7 | 0.7 | N | 145 | 0.0 |
| 30.03.2025 | 10:12 | 5.8 | 87 | 3.8 | 1020.5 | 2.5 | NNO | 187 | 0.0 |
| 30.03.2025 | 10:22 | 6.0 | 85 | 3.7 | 1020.5 | 4.7 | SSW | 382 | 0.0 |
| 30.03.2025 | 10:32 | 6.9 | 83 | 4.2 | 1020.4 | 3.6 | S | 394 | 0.0 |
| 30.03.2025 | 10:42 | 6.7 | 82 | 3.8 | 1020.4 | 4.7 | SSW | 416 | 0.0 |
| 30.03.2025 | 10:52 | 7.8 | 79 | 4.4 | 1020.1 | 3.2 | SSW | 444 | 0.0 |
| 30.03.2025 | 11:02 | 8.2 | 80 | 4.8 | 1020.0 | 2.9 | SW | 473 | 0.0 |
| 30.03.2025 | 11:12 | 6.8 | 83 | 4.1 | 1020.3 | 11.5 | SSW | 471 | 0.0 |
| 30.03.2025 | 11:22 | 7.1 | 80 | 4.0 | 1020.2 | 4.0 | S | 476 | 0.0 |
| 30.03.2025 | 11:32 | 8.4 | 76 | 4.4 | 1019.9 | 3.2 | SW | 494 | 0.0 |
| 30.03.2025 | 11:42 | 8.7 | 75 | 4.4 | 1019.9 | 4.3 | WSW | 507 | 0.0 |
| 30.03.2025 | 11:52 | 9.4 | 68 | 3.7 | 1019.8 | 6.5 | WSW | 534 | 0.0 |
| 30.03.2025 | 12:03 | 7.6 | 80 | 4.4 | 1020.1 | 10.8 | S | 528 | 0.0 |
| 30.03.2025 | 12:13 | 7.4 | 81 | 4.3 | 1020.2 | 5.4 | SSW | 568 | 0.0 |
| 30.03.2025 | 12:23 | 8.7 | 74 | 4.4 | 1019.9 | 6.8 | SW | 532 | 0.0 |
| 30.03.2025 | 12:33 | 8.1 | 72 | 3.3 | 1019.8 | 5.0 | SSW | 485 | 0.0 |
| 30.03.2025 | 12:43 | 10.3 | 69 | 4.8 | 1019.4 | 3.2 | SW | 571 | 0.0 |
| 30.03.2025 | 12:53 | 9.5 | 70 | 4.2 | 1019.6 | 4.0 | SSW | 578 | 0.0 |
| 30.03.2025 | 13:03 | 11.9 | 57 | 3.6 | 1018.8 | 3.6 | SW | 574 | 0.0 |
| 30.03.2025 | 13:13 | 11.5 | 59 | 3.6 | 1018.8 | 4.3 | SSW | 580 | 0.0 |
| 30.03.2025 | 13:23 | 8.5 | 73 | 3.9 | 1019.5 | 6.8 | SSW | 584 | 0.0 |
| 30.03.2025 | 13:33 | 9.4 | 59 | 1.7 | 1019.1 | 5.0 | SSW | 585 | 0.0 |
| 30.03.2025 | 13:43 | 10.0 | 57 | 1.8 | 1018.6 | 3.2 | SSW | 590 | 0.0 |
| 30.03.2025 | 13:53 | 10.6 | 58 | 2.7 | 1018.3 | 6.1 | SSW | 587 | 0.0 |
| 30.03.2025 | 14:03 | 10.1 | 58 | 2.3 | 1018.2 | 4.3 | SSW | 583 | 0.0 |
| 30.03.2025 | 14:13 | 11.5 | 59 | 3.7 | 1017.7 | 3.6 | SW | 588 | 0.0 |
| 30.03.2025 | 14:23 | 11.8 | 54 | 2.7 | 1017.5 | 2.5 | SSW | 594 | 0.0 |
| 30.03.2025 | 14:33 | 12.7 | 50 | 2.4 | 1017.3 | 2.2 | WSW | 637 | 0.0 |
| 30.03.2025 | 14:43 | 12.8 | 49 | 2.5 | 1017.3 | 5.8 | WSW | 371 | 0.0 |
| 30.03.2025 | 14:53 | 14.1 | 46 | 2.7 | 1017.0 | 6.1 | WSW | 457 | 0.0 |
| 30.03.2025 | 15:03 | 14.0 | 48 | 3.1 | 1017.0 | 4.7 | WSW | 564 | 0.0 |
| 30.03.2025 | 15:13 | 13.3 | 53 | 4.0 | 1017.1 | 2.9 | W | 460 | 0.0 |
| 30.03.2025 | 15:23 | 12.5 | 52 | 3.0 | 1017.4 | 2.2 | WSW | 309 | 0.0 |
| 30.03.2025 | 15:33 | 13.0 | 51 | 3.2 | 1017.2 | 7.2 | WSW | 588 | 0.0 |
| 30.03.2025 | 15:43 | 13.9 | 50 | 3.7 | 1016.9 | 7.9 | W | 531 | 0.0 |
| 30.03.2025 | 15:53 | 13.6 | 45 | 2.0 | 1016.9 | 2.5 | SSW | 505 | 0.0 |
| 30.03.2025 | 16:03 | 13.3 | 47 | 2.2 | 1016.7 | 2.2 | NW | 488 | 0.0 |
| 30.03.2025 | 16:13 | 13.3 | 48 | 2.6 | 1016.9 | 3.2 | WNW | 440 | 0.0 |
| 30.03.2025 | 16:23 | 14.1 | 52 | 4.5 | 1016.5 | 3.6 | SW | 451 | 0.0 |
| 30.03.2025 | 16:33 | 13.3 | 55 | 4.5 | 1016.7 | 6.1 | WSW | 441 | 0.0 |
| 30.03.2025 | 16:43 | 12.9 | 58 | 4.8 | 1016.5 | 4.3 | W | 166 | 0.0 |
| 30.03.2025 | 16:53 | 12.9 | 56 | 4.2 | 1016.6 | 3.6 | NW | 211 | 0.0 |
| 30.03.2025 | 17:03 | 12.5 | 56 | 3.8 | 1016.7 | 3.2 | NW | 206 | 0.0 |
| 30.03.2025 | 17:13 | 12.2 | 58 | 4.2 | 1016.8 | 2.9 | WNW | 193 | 0.0 |
| 30.03.2025 | 17:24 | 12.1 | 59 | 4.5 | 1016.5 | 8.6 | WNW | 265 | 0.0 |
| 30.03.2025 | 17:34 | 11.8 | 60 | 4.2 | 1016.6 | 3.2 | NNW | 190 | 0.0 |
| 30.03.2025 | 17:44 | 12.0 | 58 | 4.1 | 1016.5 | 5.4 | WSW | 216 | 0.0 |
| 30.03.2025 | 17:54 | 11.7 | 59 | 4.0 | 1016.5 | 1.4 | WNW | 129 | 0.0 |
| 30.03.2025 | 18:04 | 11.6 | 56 | 3.2 | 1016.5 | 11.9 | N | 78 | 0.0 |
| 30.03.2025 | 18:14 | 12.2 | 52 | 2.7 | 1016.5 | 7.9 | N | 76 | 0.0 |
| 30.03.2025 | 18:24 | 12.3 | 53 | 2.9 | 1016.6 | 6.5 | NNO | 54 | 0.0 |
| 30.03.2025 | 18:34 | 11.8 | 56 | 3.2 | 1016.7 | 2.5 | WSW | 46 | 0.0 |
| 30.03.2025 | 18:44 | 12.0 | 52 | 2.4 | 1016.8 | 1.8 | N | 49 | 0.0 |
| 30.03.2025 | 18:54 | 11.3 | 56 | 2.9 | 1016.9 | 8.3 | W | 20 | 0.0 |
| 30.03.2025 | 19:04 | 11.2 | 56 | 2.7 | 1017.0 | 3.6 | WSW | 17 | 0.0 |
| 30.03.2025 | 19:14 | 11.2 | 55 | 2.6 | 1017.0 | 3.6 | SSW | 18 | 0.0 |
| 30.03.2025 | 19:24 | 11.2 | 51 | 1.5 | 1017.3 | 17.3 | SSW | 14 | 0.0 |
| 30.03.2025 | 19:34 | 11.6 | 48 | 0.9 | 1017.0 | 3.6 | NNW | 7 | 0.0 |
| 30.03.2025 | 19:44 | 11.3 | 45 | 0.0 | 1017.2 | 16.6 | S | 4 | 0.0 |
| 30.03.2025 | 19:54 | 11.2 | 46 | 0.2 | 1017.5 | 11.2 | S | 2 | 0.0 |
| 30.03.2025 | 20:04 | 10.8 | 50 | 0.7 | 1017.6 | 10.1 | SSW | 0 | 0.0 |
| 30.03.2025 | 20:14 | 11.9 | 41 | -0.8 | 1017.9 | 7.9 | NNW | 0 | 0.0 |
| 30.03.2025 | 20:24 | 11.9 | 38 | -1.8 | 1017.8 | 18.4 | NNW | 0 | 0.0 |
| 30.03.2025 | 20:34 | 11.8 | 38 | -2.3 | 1018.3 | 13.0 | N | 0 | 0.0 |
| 30.03.2025 | 20:44 | 11.6 | 39 | -1.8 | 1018.4 | 1.1 | N | 0 | 0.0 |
| 30.03.2025 | 20:54 | 11.6 | 40 | -1.7 | 1018.6 | 0.7 | NO | 0 | 0.0 |
| 30.03.2025 | 21:04 | 11.5 | 38 | -2.2 | 1018.4 | 3.6 | N | 0 | 0.0 |
| 30.03.2025 | 21:14 | 11.2 | 39 | -2.1 | 1018.4 | 8.3 | NNW | 0 | 0.0 |
| 30.03.2025 | 21:24 | 11.2 | 41 | -1.4 | 1018.4 | 1.8 | WSW | 0 | 0.0 |
| 30.03.2025 | 21:34 | 11.0 | 46 | -0.1 | 1018.6 | 6.5 | NNW | 0 | 0.0 |
| 30.03.2025 | 21:44 | 10.7 | 50 | 0.7 | 1018.7 | 3.2 | N | 0 | 0.0 |
| 30.03.2025 | 21:54 | 10.7 | 50 | 0.7 | 1018.9 | 3.2 | NW | 0 | 0.0 |
| 30.03.2025 | 22:04 | 10.5 | 53 | 1.3 | 1018.7 | 8.6 | WSW | 0 | 0.0 |
| 30.03.2025 | 22:14 | 10.1 | 55 | 1.5 | 1018.7 | 4.0 | SW | 0 | 0.0 |
| 30.03.2025 | 22:24 | 10.2 | 55 | 1.6 | 1018.9 | 4.7 | O | 0 | 0.0 |
| 30.03.2025 | 22:34 | 10.2 | 54 | 1.2 | 1019.0 | 3.6 | W | 0 | 0.0 |
| 30.03.2025 | 22:45 | 9.9 | 59 | 2.2 | 1018.8 | 4.7 | SSW | 0 | 0.0 |
| 30.03.2025 | 22:55 | 10.3 | 54 | 1.5 | 1019.0 | 4.3 | SSO | 0 | 0.0 |
| 30.03.2025 | 23:05 | 10.3 | 53 | 1.1 | 1018.9 | 6.1 | WNW | 0 | 0.0 |
| 30.03.2025 | 23:15 | 10.4 | 52 | 0.9 | 1019.1 | 8.3 | S | 0 | 0.0 |
| 30.03.2025 | 23:25 | 10.5 | 50 | 0.4 | 1018.8 | 10.4 | SW | 0 | 0.0 |
| 30.03.2025 | 23:35 | 10.1 | 54 | 1.2 | 1018.8 | 15.8 | S | 0 | 0.0 |
| 30.03.2025 | 23:45 | 9.8 | 56 | 1.5 | 1019.0 | 2.5 | NW | 0 | 0.0 |
| 30.03.2025 | 23:55 | 9.7 | 57 | 1.5 | 1018.9 | 9.4 | WSW | 0 | 0.0 |